• Join FlightAware (Why Join?)
  • Login
  • US Flag 
Trick or treat! (Boo!!) 
11:09AM EDT


 

Airport Tracker/Info


-or-


 

Live Flight TrackerFlight Track Log ✈ N7191N ✈ 01-May-2013 ✈ KUZA - KCLE

Flight Track Log - Related Links

Times and Time Zones

All times are in EDT time to prevent confusion due to time zone crossing. See the N7191N flight status page for this flight to view local times or setup timezone preferences in your user account.

Time Position Orientation Groundspeed Altitude Reporting Facility
EDT Latitude Longitude Course Direction KTS MPH feet Rate Location/Type
04:23PM 34.9978 -81.0569 335° Northwest 123 142 1,000  Level Atlanta Center
04:24PM 35.0103 -81.0642 335° Northwest 137 158 1,600 1,200 Climbing Atlanta Center
04:25PM 35.0158 -81.1197 277° West 192 221 2,800 720 Climbing Atlanta Center
04:26PM 35.0133 -81.1858 267° West 227 261 3,000 960 Climbing Atlanta Center
04:27PM 35.0500 -81.2428 308° West 180 207 4,800 1,380 Climbing Atlanta Center
04:27PM 35.0586 -81.2503 325° Northwest 177 204 5,000 1,260 Climbing Atlanta Center
04:28PM 35.0925 -81.2769 327° Northwest 174 200 6,100 1,260 Climbing Atlanta Center
04:28PM 35.1031 -81.2767 North 157 181 6,300 1,560 Climbing Atlanta Center
04:29PM 35.1386 -81.2806 355° North 173 199 7,700 1,560 Climbing Atlanta Center
04:29PM 35.1511 -81.2878 335° Northwest 177 204 7,900 1,320 Climbing Atlanta Center
04:30PM 35.1867 -81.2917 355° North 173 199 9,100 1,560 Climbing Atlanta Center
04:31PM 35.2350 -81.2975 354° North 174 200 10,700 1,500 Climbing Atlanta Center
04:32PM 35.2567 -81.2408 331° Northwest 172 198 12,200 1,260 Climbing Atlanta Center
04:33PM 35.3036 -81.1986 36° Northeast 191 220 13,500 780 Climbing Atlanta Center
04:34PM 35.3572 -81.1714 22° Northeast 201 231 14,000 420 Climbing Atlanta Center
04:35PM 35.4150 -81.1389 25° Northeast 218 251 14,400 720 Climbing Atlanta Center
04:36PM 35.4747 -81.1136 19° North 226 260 15,500 1,200 Climbing Atlanta Center
04:37PM 35.5242 -81.0839 26° Northeast 216 249 16,800 1,200 Climbing Atlanta Center
04:38PM 35.5744 -81.0972 348° North 182 209 17,900 900 Climbing Atlanta Center
04:39PM 35.6314 -81.1183 343° North 189 217 18,600 780 Climbing Atlanta Center
04:40PM 35.6942 -81.1289 352° North 208 239 19,500 900 Climbing Atlanta Center
04:41PM 35.7550 -81.1447 348° North 220 253 20,500 900 Climbing Atlanta Center
04:42PM 35.8158 -81.1553 352° North 220 253 21,400 840 Climbing Atlanta Center
04:43PM 35.8767 -81.1683 350° North 220 253 22,200 780 Climbing Atlanta Center
04:44PM 35.9417 -81.1817 351° North 226 260 23,000 780 Climbing Atlanta Center
04:45PM 36.0022 -81.1922 352° North 226 260 23,800 480 Climbing Atlanta Center
04:46PM 36.0694 -81.2053 351° North 226 260 24,000 60 Climbing Atlanta Center
04:47PM 36.1406 -81.2183 352° North 246 283 24,000  Level Atlanta Center
04:48PM 36.2139 -81.2336 350° North 258 297 24,000  Level Atlanta Center
04:49PM 36.2767 -81.2444 352° North 263 303 24,000  Level Atlanta Center
04:50PM 36.3522 -81.2625 349° North 258 297 24,000  Level Atlanta Center
04:51PM 36.4275 -81.2753 352° North 258 297 24,000  Level Atlanta Center
04:52PM 36.5008 -81.2883 352° North 258 297 24,000  Level Atlanta Center
04:53PM 36.5742 -81.3064 349° North 258 297 24,000  Level Atlanta Center
04:54PM 36.6475 -81.3194 352° North 258 297 24,000  Level Atlanta Center
04:55PM 36.7272 -81.3375 350° North 258 297 24,000  Level Atlanta Center
04:56PM 36.7900 -81.3508 350° North 258 297 24,000  Level Atlanta Center
04:58PM 36.9236 -81.3769 351° North 268 308 24,000  Level Indianapolis Center
04:59PM 36.9939 -81.3911 351° North 263 303 24,000  Level Indianapolis Center
05:00PM 37.0747 -81.4067 351° North 269 310 24,000  Level Indianapolis Center
05:01PM 37.1483 -81.4211 351° North 267 307 24,000  Level Indianapolis Center
05:02PM 37.2219 -81.4358 351° North 268 308 24,000  Level Indianapolis Center
05:03PM 37.3078 -81.4544 350° North 269 310 24,000  Level Indianapolis Center
05:04PM 37.3814 -81.4686 351° North 267 307 24,000  Level Indianapolis Center
05:05PM 37.4525 -81.4833 351° North 265 305 24,000  Level Indianapolis Center
05:06PM 37.5256 -81.4994 350° North 271 312 24,000  Level Indianapolis Center
05:07PM 37.6006 -81.5136 351° North 263 303 24,000  Level Indianapolis Center
05:08PM 37.6858 -81.5317 350° North 264 304 24,000  Level Indianapolis Center
05:09PM 37.7597 -81.5464 351° North 266 306 24,000  Level Indianapolis Center
05:10PM 37.8364 -81.5625 351° North 264 304 24,000  Level Indianapolis Center
05:11PM 37.9083 -81.5769 351° North 261 300 24,000  Level Indianapolis Center
05:12PM 37.9817 -81.5919 351° North 265 305 24,000  Level Indianapolis Center
05:13PM 38.0539 -81.6081 350° North 263 303 24,000  Level Indianapolis Center
05:14PM 38.1269 -81.6236 350° North 266 306 24,000  Level Indianapolis Center
05:15PM 38.1992 -81.6383 351° North 264 304 24,000  Level Indianapolis Center
05:17PM 38.2725 -81.6536 351° North 266 306 24,000  Level Indianapolis Center
05:18PM 38.3592 -81.6719 351° North 264 304 24,000  Level Indianapolis Center
05:19PM 38.4317 -81.6875 350° North 263 303 24,000  Level Indianapolis Center
05:20PM 38.5050 -81.7031 351° North 265 305 24,000  Level Indianapolis Center
05:21PM 38.5781 -81.7186 351° North 264 304 24,000  Level Indianapolis Center
05:22PM 38.6517 -81.7350 350° North 264 304 24,000  Level Indianapolis Center
05:23PM 38.7261 -81.7506 351° North 266 306 24,000  Level Indianapolis Center
05:24PM 38.8000 -81.7653 351° North 266 306 24,000  Level Indianapolis Center
05:25PM 38.8733 -81.7803 351° North 266 306 24,000  Level Indianapolis Center
05:26PM 38.9608 -81.7997 350° North 264 304 24,000  Level Indianapolis Center
05:27PM 39.0336 -81.8147 351° North 265 305 24,000  Level Indianapolis Center
05:28PM 39.1072 -81.8308 350° North 267 307 24,000  Level Indianapolis Center
05:29PM 39.1811 -81.8464 351° North 268 308 24,000  Level Indianapolis Center
05:30PM 39.2544 -81.8628 350° North 266 306 24,000  Level Indianapolis Center
05:31PM 39.3275 -81.8783 351° North 265 305 24,000  Level Indianapolis Center
05:32PM 39.4000 -81.8931 351° North 263 303 24,000  Level Indianapolis Center
05:33PM 39.4883 -81.9119 351° North 266 306 24,000  Level Indianapolis Center
05:34PM 39.5600 -81.9281 350° North 262 302 24,000  Level Indianapolis Center
05:35PM 39.6328 -81.9444 350° North 264 304 24,000 -60 Level Indianapolis Center
05:36PM 39.7053 -81.9600 351° North 262 302 23,900 -540 Descending Indianapolis Center
05:37PM 39.7869 -81.9778 351° North 266 306 22,900 -1,020 Descending Indianapolis Center
05:38PM 39.8617 -81.9942 350° North 268 308 21,900 -960 Descending Indianapolis Center
05:39PM 39.9367 -82.0106 350° North 268 308 21,000 -780 Descending Indianapolis Center
05:40PM 40.0092 -82.0264 351° North 262 302 20,300 -840 Descending Indianapolis Center
05:41PM 40.0847 -82.0214 North 267 307 19,300 -840 Descending Indianapolis Center
05:42PM 40.1619 -82.0200 North 273 314 18,600 -720 Descending Indianapolis Center
05:43PM 40.2375 -82.0206 360° North 271 312 17,900 -720 Descending Indianapolis Center
05:44PM 40.3247 -82.0200 360° North 267 307 17,100 -840 Descending Indianapolis Center
05:45PM 40.4006 -82.0189 North 268 308 16,200 -1,020 Descending Indianapolis Center
05:47PM 40.4750 -82.0169 North 265 305 15,100 -1,020 Descending Indianapolis Center
05:48PM 40.5497 -82.0167 360° North 265 305 14,100 -1,020 Descending Indianapolis Center
05:49PM 40.6119 -81.9703 30° Northeast 264 304 13,000 -900 Descending Indianapolis Center
05:50PM 40.6700 -81.9153 36° Northeast 258 297 12,300 -600 Descending Indianapolis Center
05:51PM 40.7239 -81.8619 37° Northeast 248 285 11,800 -720 Descending Indianapolis Center
05:52PM 40.7797 -81.8061 37° Northeast 246 283 10,900 -840 Descending Cleveland Center
05:52PM 40.8325 -81.7578 35° Northeast 248 285 10,300 -660 Descending Cleveland Center
05:54PM 40.8956 -81.6900 39° Northeast 243 280 9,600 -600 Descending Cleveland Center
05:55PM 40.9539 -81.6911 359° North 254 292 9,100 -360 Descending Cleveland Center
05:56PM 41.0139 -81.7333 332° Northwest 242 278 9,000 -60 Descending Cleveland Center
05:57PM 41.0806 -81.7567 345° North 230 265 9,000 -360 Level Cleveland Center
05:58PM 41.1408 -81.7550 North 226 260 8,300 -900 Descending Cleveland Center
05:59PM 41.2097 -81.7589 358° North 239 275 7,200 -660 Descending Cleveland Center
06:00PM 41.2783 -81.7656 356° North 239 275 7,000 -420 Descending Cleveland Center
06:01PM 41.3514 -81.7586 North 233 268 6,400 -900 Descending Cleveland Center
06:02PM 41.4061 -81.7208 27° Northeast 224 258 5,100 -1,380 Descending Cleveland Center
06:03PM 41.4539 -81.7411 342° North 180 207 3,700 -1,500 Descending Cleveland Center
06:04PM 41.4511 -81.7883 266° West 135 155 2,300 -1,260 Descending Cleveland Center
06:05PM 41.4217 -81.8347 230° Southwest 134 154 1,200 -1,020 Descending Cleveland Center
06:07PM 41.4000 -81.8500 90° East  Level FlightAware Approximate